This is the latest recevied weather packets stored in our database for station/object KI5GCD-13. If no packets are shown the sender has not sent any weather packets the latest 10 day(s).
| Time | Temp. | Humidity | Pressure | Rain* | Wind** | Luminosity | Snow |
|---|---|---|---|---|---|---|---|
| 1777871987 | 19.44° C | 59% | 1008.5 hPa | 0 mm | 0.45 m/s, 230° | - | - |
| 1777871687 | 20° C | 59% | 1008.4 hPa | 0 mm | 0.45 m/s, 218° | - | - |
| 1777871388 | 19.44° C | 57% | 1008.4 hPa | 0 mm | 2.68 m/s, 192° | - | - |
| 1777871087 | 20° C | 58% | 1008.4 hPa | 0 mm | 0.89 m/s, 254° | - | - |
| 1777870787 | 19.44° C | 57% | 1008.1 hPa | 0 mm | 1.79 m/s, 236° | - | - |
| 1777870487 | 19.44° C | 58% | 1008.4 hPa | 0 mm | 0.89 m/s, 231° | - | - |
| 1777870187 | 20° C | 57% | 1008.5 hPa | 0 mm | 0.89 m/s, 217° | - | - |
| 1777869887 | 20° C | 58% | 1008.7 hPa | 0 mm | 2.24 m/s, 175° | - | - |
| 1777869587 | 20° C | 58% | 1008.5 hPa | 0 mm | 0.89 m/s, 198° | - | - |
| 1777869287 | 20° C | 57% | 1008.6 hPa | 0 mm | 1.34 m/s, 227° | - | - |
| 1777868987 | 20° C | 58% | 1008.4 hPa | 0 mm | 1.34 m/s, 215° | - | - |
| 1777868687 | 20° C | 57% | 1008.7 hPa | 0 mm | 0.89 m/s, 288° | - | - |
| 1777868387 | 20° C | 58% | 1008.5 hPa | 0 mm | 0.45 m/s, 236° | - | - |
| 1777868087 | 20° C | 58% | 1008.7 hPa | 0 mm | 0.45 m/s, 221° | - | - |
| 1777867787 | 19.44° C | 58% | 1008.7 hPa | 0 mm | 2.24 m/s, 199° | - | - |
| 1777867487 | 20° C | 59% | 1008.5 hPa | 0 mm | 0.45 m/s, 232° | - | - |
| 1777867188 | 20° C | 59% | 1008.7 hPa | 0 mm | 0.45 m/s, 216° | - | - |
| 1777866887 | 20° C | 58% | 1008.8 hPa | 0 mm | 0.45 m/s, 235° | - | - |
| 1777866587 | 20° C | 57% | 1008.7 hPa | 0 mm | 0.45 m/s, 234° | - | - |
| 1777866287 | 20° C | 57% | 1009 hPa | 0 mm | 0.45 m/s, 225° | - | - |
| 1777865987 | 19.44° C | 58% | 1008.9 hPa | 0 mm | 0 m/s | - | - |
| 1777865688 | 20° C | 59% | 1008.5 hPa | 0 mm | 0.45 m/s, 235° | - | - |
| 1777865387 | 20° C | 58% | 1008.8 hPa | 0 mm | 0.45 m/s, 194° | - | - |
| 1777865088 | 20° C | 59% | 1008.7 hPa | 0 mm | 0.45 m/s, 202° | - | - |
| 1777864787 | 19.44° C | 59% | 1008.8 hPa | 0 mm | 0.45 m/s, 236° | - | - |
* Rain latest hour (hover to see other rain measurements)
** Current wind speed in m/s (hover to see current wind gust speed)